Terminal Aerodrome Forecast
Issued by NWS

Home | Current Version | Previous Version | Graphics & Text | Print | Product List | Glossary On
Versions: 1 2 3 4 5 6 7 8 9 10 11 12 13
000
FTUS43 KGRB 272300
TAFMTW
TAF
KMTW 272330Z 2800/2824 15003KT P6SM SCT250
     FM280400 VRB03KT 3SM BR SCT250
     FM280700 00000KT 1 1/2SM BR SCT003
      TEMPO 2808/2812 1/4SM FG BKN002
     FM281300 20003KT 4SM BR SCT200
     FM281600 15006KT P6SM FEW050 SCT200=

USA.gov is the U.S. government's official web portal to all federal, state and local government web resources and services.